sensor_id;sensor_type;location;lat;lon;timestamp;P1;durP1;ratioP1;P2;durP2;ratioP2
44446;SDS011;30152;52.066;5.358;2023-02-11T08:37:27;50.95;;;22.63;;
44446;SDS011;30152;52.066;5.358;2023-02-11T08:39:53;54.28;;;21.38;;
44446;SDS011;30152;52.066;5.358;2023-02-11T08:42:19;52.85;;;21.88;;
44446;SDS011;30152;52.066;5.358;2023-02-11T08:44:45;42.35;;;20.23;;
44446;SDS011;30152;52.066;5.358;2023-02-11T08:47:11;46.60;;;21.80;;
44446;SDS011;30152;52.066;5.358;2023-02-11T08:49:37;48.10;;;20.80;;
44446;SDS011;30152;52.066;5.358;2023-02-11T08:52:03;49.92;;;22.75;;
44446;SDS011;30152;52.066;5.358;2023-02-11T08:54:29;55.50;;;23.00;;
44446;SDS011;30152;52.066;5.358;2023-02-11T08:56:55;50.58;;;22.08;;
44446;SDS011;30152;52.066;5.358;2023-02-11T08:59:22;54.00;;;22.77;;
44446;SDS011;30152;52.066;5.358;2023-02-11T09:01:48;60.75;;;23.73;;
44446;SDS011;30152;52.066;5.358;2023-02-11T09:04:14;51.97;;;22.20;;
44446;SDS011;30152;52.066;5.358;2023-02-11T09:06:40;52.17;;;22.40;;
44446;SDS011;30152;52.066;5.358;2023-02-11T09:09:09;53.58;;;23.95;;
44446;SDS011;30152;52.066;5.358;2023-02-11T09:11:35;46.63;;;21.30;;
44446;SDS011;30152;52.066;5.358;2023-02-11T09:14:01;54.13;;;22.08;;
44446;SDS011;30152;52.066;5.358;2023-02-11T09:16:28;45.78;;;21.75;;
44446;SDS011;30152;52.066;5.358;2023-02-11T09:18:55;55.97;;;24.23;;
44446;SDS011;30152;52.066;5.358;2023-02-11T09:21:21;53.30;;;24.05;;
44446;SDS011;30152;52.066;5.358;2023-02-11T09:23:47;52.38;;;23.65;;
44446;SDS011;30152;52.066;5.358;2023-02-11T09:26:18;54.20;;;23.85;;
44446;SDS011;30152;52.066;5.358;2023-02-11T09:28:44;52.95;;;23.98;;
44446;SDS011;30152;52.066;5.358;2023-02-11T09:31:11;52.25;;;24.13;;
44446;SDS011;30152;52.066;5.358;2023-02-11T09:33:38;64.05;;;23.45;;
44446;SDS011;30152;52.066;5.358;2023-02-11T09:36:06;54.72;;;24.25;;
44446;SDS011;30152;52.066;5.358;2023-02-11T09:38:32;45.85;;;23.13;;
44446;SDS011;30152;52.066;5.358;2023-02-11T09:40:58;50.92;;;23.25;;
44446;SDS011;30152;52.066;5.358;2023-02-11T09:43:32;59.28;;;26.17;;
44446;SDS011;30152;52.066;5.358;2023-02-11T09:46:01;55.47;;;22.83;;
44446;SDS011;30152;52.066;5.358;2023-02-11T09:48:27;50.03;;;23.42;;
44446;SDS011;30152;52.066;5.358;2023-02-11T09:50:59;50.65;;;22.80;;
44446;SDS011;30152;52.066;5.358;2023-02-11T09:53:33;49.38;;;23.73;;
44446;SDS011;30152;52.066;5.358;2023-02-11T09:56:00;43.25;;;21.52;;
44446;SDS011;30152;52.066;5.358;2023-02-11T09:58:33;48.38;;;22.42;;
44446;SDS011;30152;52.066;5.358;2023-02-11T10:06:13;49.95;;;22.95;;
44446;SDS011;30152;52.066;5.358;2023-02-11T10:11:49;49.40;;;23.15;;
44446;SDS011;30152;52.066;5.358;2023-02-11T10:14:47;45.95;;;23.50;;
44446;SDS011;30152;52.066;5.358;2023-02-11T10:23:18;43.00;;;22.33;;
44446;SDS011;30152;52.066;5.358;2023-02-11T10:25:49;51.63;;;23.63;;
44446;SDS011;30152;52.066;5.358;2023-02-11T10:28:21;41.20;;;20.65;;
44446;SDS011;30152;52.066;5.358;2023-02-11T10:33:32;46.35;;;21.55;;
44446;SDS011;30152;52.066;5.358;2023-02-11T10:35:59;42.03;;;20.55;;
44446;SDS011;30152;52.066;5.358;2023-02-11T10:38:25;38.80;;;20.52;;
44446;SDS011;30152;52.066;5.358;2023-02-11T10:40:52;44.13;;;21.45;;
44446;SDS011;30152;52.066;5.358;2023-02-11T10:43:18;39.65;;;19.55;;
44446;SDS011;30152;52.066;5.358;2023-02-11T10:45:50;38.28;;;19.48;;
44446;SDS011;30152;52.066;5.358;2023-02-11T10:53:26;40.10;;;18.75;;
44446;SDS011;30152;52.066;5.358;2023-02-11T10:55:53;46.03;;;18.38;;
44446;SDS011;30152;52.066;5.358;2023-02-11T10:58:53;35.15;;;17.83;;
44446;SDS011;30152;52.066;5.358;2023-02-11T11:01:12;35.55;;;17.95;;
44446;SDS011;30152;52.066;5.358;2023-02-11T11:03:39;33.75;;;17.02;;
44446;SDS011;30152;52.066;5.358;2023-02-11T11:06:10;34.17;;;17.88;;
44446;SDS011;30152;52.066;5.358;2023-02-11T11:08:43;37.53;;;17.25;;
44446;SDS011;30152;52.066;5.358;2023-02-11T11:11:13;33.53;;;17.15;;
44446;SDS011;30152;52.066;5.358;2023-02-11T11:18:50;35.63;;;17.13;;
44446;SDS011;30152;52.066;5.358;2023-02-11T11:21:18;33.65;;;16.42;;
44446;SDS011;30152;52.066;5.358;2023-02-11T11:23:57;33.97;;;16.42;;
44446;SDS011;30152;52.066;5.358;2023-02-11T11:26:25;30.80;;;15.95;;
44446;SDS011;30152;52.066;5.358;2023-02-11T11:28:53;30.90;;;16.77;;
44446;SDS011;30152;52.066;5.358;2023-02-11T11:31:22;32.97;;;15.80;;
44446;SDS011;30152;52.066;5.358;2023-02-11T11:33:49;33.70;;;15.63;;
44446;SDS011;30152;52.066;5.358;2023-02-11T11:36:18;31.52;;;15.00;;
44446;SDS011;30152;52.066;5.358;2023-02-11T11:38:55;30.63;;;15.02;;
44446;SDS011;30152;52.066;5.358;2023-02-11T11:41:28;23.75;;;14.38;;
44446;SDS011;30152;52.066;5.358;2023-02-11T11:46:28;28.83;;;15.25;;
44446;SDS011;30152;52.066;5.358;2023-02-11T11:48:59;31.60;;;14.88;;
44446;SDS011;30152;52.066;5.358;2023-02-11T11:51:28;33.85;;;14.48;;
44446;SDS011;30152;52.066;5.358;2023-02-11T11:53:59;26.42;;;14.05;;
44446;SDS011;30152;52.066;5.358;2023-02-11T11:56:33;25.02;;;13.25;;
44446;SDS011;30152;52.066;5.358;2023-02-11T11:58:59;25.20;;;11.70;;
44446;SDS011;30152;52.066;5.358;2023-02-11T12:01:37;25.45;;;11.90;;
44446;SDS011;30152;52.066;5.358;2023-02-11T12:09:21;24.42;;;11.60;;
44446;SDS011;30152;52.066;5.358;2023-02-11T12:14:29;23.15;;;12.43;;
44446;SDS011;30152;52.066;5.358;2023-02-11T12:19:46;25.30;;;12.32;;
44446;SDS011;30152;52.066;5.358;2023-02-11T12:22:23;28.10;;;12.30;;
44446;SDS011;30152;52.066;5.358;2023-02-11T12:32:37;25.77;;;13.00;;
44446;SDS011;30152;52.066;5.358;2023-02-11T12:35:30;25.80;;;11.80;;
44446;SDS011;30152;52.066;5.358;2023-02-11T12:38:03;27.10;;;14.95;;
44446;SDS011;30152;52.066;5.358;2023-02-11T12:40:45;30.23;;;16.08;;
44446;SDS011;30152;52.066;5.358;2023-02-11T12:48:51;32.58;;;15.23;;
44446;SDS011;30152;52.066;5.358;2023-02-11T12:59:06;30.85;;;15.18;;
44446;SDS011;30152;52.066;5.358;2023-02-11T13:01:38;33.35;;;14.90;;
44446;SDS011;30152;52.066;5.358;2023-02-11T13:04:05;32.13;;;15.25;;
44446;SDS011;30152;52.066;5.358;2023-02-11T13:06:35;26.55;;;15.30;;
44446;SDS011;30152;52.066;5.358;2023-02-11T13:09:02;29.05;;;14.73;;
44446;SDS011;30152;52.066;5.358;2023-02-11T13:11:34;28.05;;;12.77;;
44446;SDS011;30152;52.066;5.358;2023-02-11T13:14:06;22.95;;;13.13;;
44446;SDS011;30152;52.066;5.358;2023-02-11T13:16:35;18.83;;;9.98;;
44446;SDS011;30152;52.066;5.358;2023-02-11T13:30:02;17.95;;;7.93;;
44446;SDS011;30152;52.066;5.358;2023-02-11T13:32:46;14.25;;;6.55;;
44446;SDS011;30152;52.066;5.358;2023-02-11T13:37:53;15.93;;;7.53;;
44446;SDS011;30152;52.066;5.358;2023-02-11T13:40:20;12.18;;;6.15;;
44446;SDS011;30152;52.066;5.358;2023-02-11T13:42:48;12.75;;;6.43;;
44446;SDS011;30152;52.066;5.358;2023-02-11T13:45:26;13.30;;;5.47;;
44446;SDS011;30152;52.066;5.358;2023-02-11T13:47:57;14.90;;;6.70;;
44446;SDS011;30152;52.066;5.358;2023-02-11T13:50:23;15.18;;;6.18;;
44446;SDS011;30152;52.066;5.358;2023-02-11T13:52:55;13.80;;;6.63;;
44446;SDS011;30152;52.066;5.358;2023-02-11T13:55:22;15.95;;;7.03;;
44446;SDS011;30152;52.066;5.358;2023-02-11T14:14:27;11.57;;;6.00;;
44446;SDS011;30152;52.066;5.358;2023-02-11T14:19:38;14.38;;;6.10;;
44446;SDS011;30152;52.066;5.358;2023-02-11T14:40:15;10.02;;;5.85;;
44446;SDS011;30152;52.066;5.358;2023-02-11T14:42:43;9.90;;;5.53;;
44446;SDS011;30152;52.066;5.358;2023-02-11T14:45:10;14.05;;;5.88;;
44446;SDS011;30152;52.066;5.358;2023-02-11T14:47:40;11.00;;;5.47;;
44446;SDS011;30152;52.066;5.358;2023-02-11T14:50:18;14.85;;;6.32;;
44446;SDS011;30152;52.066;5.358;2023-02-11T14:52:46;13.25;;;5.93;;
44446;SDS011;30152;52.066;5.358;2023-02-11T14:55:25;11.73;;;5.88;;
44446;SDS011;30152;52.066;5.358;2023-02-11T14:58:12;11.48;;;5.63;;
44446;SDS011;30152;52.066;5.358;2023-02-11T15:03:33;12.50;;;5.75;;
44446;SDS011;30152;52.066;5.358;2023-02-11T15:08:47;16.33;;;8.48;;
44446;SDS011;30152;52.066;5.358;2023-02-11T15:11:14;16.35;;;6.55;;
44446;SDS011;30152;52.066;5.358;2023-02-11T15:13:42;15.30;;;8.23;;
44446;SDS011;30152;52.066;5.358;2023-02-11T15:16:14;13.20;;;6.45;;
44446;SDS011;30152;52.066;5.358;2023-02-11T15:18:43;15.80;;;7.95;;
44446;SDS011;30152;52.066;5.358;2023-02-11T15:21:10;18.40;;;9.18;;
44446;SDS011;30152;52.066;5.358;2023-02-11T15:23:36;10.30;;;5.63;;
44446;SDS011;30152;52.066;5.358;2023-02-11T15:26:10;12.30;;;6.07;;
44446;SDS011;30152;52.066;5.358;2023-02-11T15:28:36;17.73;;;7.47;;
44446;SDS011;30152;52.066;5.358;2023-02-11T15:31:03;17.08;;;6.18;;
44446;SDS011;30152;52.066;5.358;2023-02-11T15:33:30;15.57;;;6.18;;
44446;SDS011;30152;52.066;5.358;2023-02-11T15:36:01;12.40;;;6.45;;
44446;SDS011;30152;52.066;5.358;2023-02-11T15:38:27;17.02;;;6.43;;
44446;SDS011;30152;52.066;5.358;2023-02-11T15:40:59;14.10;;;6.07;;
44446;SDS011;30152;52.066;5.358;2023-02-11T15:43:47;13.20;;;6.78;;
44446;SDS011;30152;52.066;5.358;2023-02-11T15:46:19;16.25;;;7.50;;
44446;SDS011;30152;52.066;5.358;2023-02-11T15:48:46;13.77;;;5.97;;
44446;SDS011;30152;52.066;5.358;2023-02-11T15:51:18;14.55;;;6.72;;
44446;SDS011;30152;52.066;5.358;2023-02-11T15:53:46;15.52;;;7.40;;
44446;SDS011;30152;52.066;5.358;2023-02-11T15:56:17;15.48;;;6.50;;
44446;SDS011;30152;52.066;5.358;2023-02-11T15:58:44;18.08;;;8.75;;
44446;SDS011;30152;52.066;5.358;2023-02-11T16:01:11;16.23;;;6.40;;
44446;SDS011;30152;52.066;5.358;2023-02-11T16:03:38;15.30;;;6.18;;
44446;SDS011;30152;52.066;5.358;2023-02-11T16:08:40;16.55;;;6.78;;
44446;SDS011;30152;52.066;5.358;2023-02-11T16:11:22;19.88;;;7.28;;
44446;SDS011;30152;52.066;5.358;2023-02-11T16:13:49;17.17;;;7.80;;
44446;SDS011;30152;52.066;5.358;2023-02-11T16:16:18;20.20;;;8.20;;
44446;SDS011;30152;52.066;5.358;2023-02-11T16:18:49;17.20;;;7.05;;
44446;SDS011;30152;52.066;5.358;2023-02-11T16:21:16;17.70;;;7.50;;
44446;SDS011;30152;52.066;5.358;2023-02-11T16:23:47;18.73;;;9.15;;
44446;SDS011;30152;52.066;5.358;2023-02-11T16:26:35;18.05;;;7.35;;
44446;SDS011;30152;52.066;5.358;2023-02-11T16:31:33;24.75;;;10.25;;
44446;SDS011;30152;52.066;5.358;2023-02-11T16:33:59;21.75;;;10.85;;
44446;SDS011;30152;52.066;5.358;2023-02-11T16:36:24;21.13;;;8.90;;
44446;SDS011;30152;52.066;5.358;2023-02-11T16:38:50;13.77;;;6.88;;
44446;SDS011;30152;52.066;5.358;2023-02-11T16:41:15;14.27;;;7.70;;
44446;SDS011;30152;52.066;5.358;2023-02-11T16:43:41;20.83;;;10.02;;
44446;SDS011;30152;52.066;5.358;2023-02-11T16:46:07;16.48;;;9.93;;
44446;SDS011;30152;52.066;5.358;2023-02-11T16:48:34;19.05;;;8.10;;
44446;SDS011;30152;52.066;5.358;2023-02-11T16:51:01;15.60;;;7.55;;
44446;SDS011;30152;52.066;5.358;2023-02-11T16:53:27;16.48;;;7.90;;
44446;SDS011;30152;52.066;5.358;2023-02-11T16:55:53;23.40;;;11.02;;
44446;SDS011;30152;52.066;5.358;2023-02-11T16:58:19;16.65;;;7.70;;
44446;SDS011;30152;52.066;5.358;2023-02-11T17:00:45;39.97;;;23.00;;
44446;SDS011;30152;52.066;5.358;2023-02-11T17:03:30;16.15;;;8.00;;
44446;SDS011;30152;52.066;5.358;2023-02-11T17:06:00;17.65;;;8.32;;
44446;SDS011;30152;52.066;5.358;2023-02-11T17:08:28;19.77;;;11.65;;
44446;SDS011;30152;52.066;5.358;2023-02-11T17:10:54;21.15;;;11.50;;
44446;SDS011;30152;52.066;5.358;2023-02-11T17:13:19;16.85;;;7.20;;
44446;SDS011;30152;52.066;5.358;2023-02-11T17:15:45;20.05;;;11.60;;
44446;SDS011;30152;52.066;5.358;2023-02-11T17:18:11;21.85;;;11.00;;
44446;SDS011;30152;52.066;5.358;2023-02-11T17:20:38;16.50;;;8.40;;
44446;SDS011;30152;52.066;5.358;2023-02-11T17:23:04;17.05;;;7.70;;
44446;SDS011;30152;52.066;5.358;2023-02-11T17:25:30;21.92;;;8.23;;
44446;SDS011;30152;52.066;5.358;2023-02-11T17:27:56;18.38;;;8.70;;
44446;SDS011;30152;52.066;5.358;2023-02-11T17:30:22;21.27;;;11.43;;
44446;SDS011;30152;52.066;5.358;2023-02-11T17:32:49;19.20;;;8.15;;
44446;SDS011;30152;52.066;5.358;2023-02-11T17:35:14;17.75;;;8.25;;
44446;SDS011;30152;52.066;5.358;2023-02-11T17:37:40;17.83;;;8.02;;
44446;SDS011;30152;52.066;5.358;2023-02-11T17:40:06;19.67;;;8.30;;
44446;SDS011;30152;52.066;5.358;2023-02-11T17:42:32;18.52;;;9.90;;
44446;SDS011;30152;52.066;5.358;2023-02-11T17:44:58;17.17;;;8.35;;
44446;SDS011;30152;52.066;5.358;2023-02-11T17:47:24;17.83;;;10.63;;
44446;SDS011;30152;52.066;5.358;2023-02-11T17:49:50;31.33;;;19.45;;
44446;SDS011;30152;52.066;5.358;2023-02-11T17:52:16;15.73;;;8.85;;
44446;SDS011;30152;52.066;5.358;2023-02-11T17:54:43;16.92;;;7.85;;
44446;SDS011;30152;52.066;5.358;2023-02-11T17:57:09;21.35;;;10.00;;
44446;SDS011;30152;52.066;5.358;2023-02-11T17:59:37;24.98;;;12.23;;
44446;SDS011;30152;52.066;5.358;2023-02-11T18:02:03;19.15;;;9.32;;
44446;SDS011;30152;52.066;5.358;2023-02-11T18:04:29;35.35;;;19.02;;
44446;SDS011;30152;52.066;5.358;2023-02-11T18:06:55;26.30;;;12.75;;
44446;SDS011;30152;52.066;5.358;2023-02-11T18:09:22;26.77;;;12.80;;
44446;SDS011;30152;52.066;5.358;2023-02-11T18:11:48;22.13;;;8.55;;
44446;SDS011;30152;52.066;5.358;2023-02-11T18:14:16;21.33;;;13.35;;
44446;SDS011;30152;52.066;5.358;2023-02-11T18:16:42;18.20;;;8.40;;
44446;SDS011;30152;52.066;5.358;2023-02-11T18:19:09;19.70;;;10.73;;
44446;SDS011;30152;52.066;5.358;2023-02-11T18:21:35;21.73;;;10.98;;
44446;SDS011;30152;52.066;5.358;2023-02-11T18:24:01;21.35;;;8.48;;
44446;SDS011;30152;52.066;5.358;2023-02-11T18:26:27;23.73;;;10.50;;
44446;SDS011;30152;52.066;5.358;2023-02-11T18:28:53;17.05;;;9.35;;
44446;SDS011;30152;52.066;5.358;2023-02-11T18:31:21;19.15;;;9.48;;
44446;SDS011;30152;52.066;5.358;2023-02-11T18:33:48;27.00;;;12.50;;
44446;SDS011;30152;52.066;5.358;2023-02-11T18:36:14;25.35;;;13.13;;
44446;SDS011;30152;52.066;5.358;2023-02-11T18:38:40;48.70;;;29.52;;
44446;SDS011;30152;52.066;5.358;2023-02-11T18:41:08;25.48;;;12.23;;
44446;SDS011;30152;52.066;5.358;2023-02-11T18:43:34;30.77;;;15.60;;
44446;SDS011;30152;52.066;5.358;2023-02-11T18:46:01;79.60;;;46.00;;
44446;SDS011;30152;52.066;5.358;2023-02-11T18:48:30;30.67;;;17.35;;
44446;SDS011;30152;52.066;5.358;2023-02-11T18:50:56;116.82;;;71.10;;
44446;SDS011;30152;52.066;5.358;2023-02-11T18:53:22;153.13;;;93.95;;
44446;SDS011;30152;52.066;5.358;2023-02-11T18:55:48;28.23;;;15.10;;
44446;SDS011;30152;52.066;5.358;2023-02-11T18:58:14;109.32;;;55.03;;
44446;SDS011;30152;52.066;5.358;2023-02-11T19:00:41;87.85;;;45.47;;
44446;SDS011;30152;52.066;5.358;2023-02-11T19:03:09;43.42;;;24.30;;
44446;SDS011;30152;52.066;5.358;2023-02-11T19:05:42;21.35;;;11.02;;
44446;SDS011;30152;52.066;5.358;2023-02-11T19:08:10;23.83;;;12.25;;
44446;SDS011;30152;52.066;5.358;2023-02-11T19:10:44;26.73;;;10.85;;
44446;SDS011;30152;52.066;5.358;2023-02-11T19:13:12;17.90;;;8.95;;
44446;SDS011;30152;52.066;5.358;2023-02-11T19:15:41;14.43;;;8.75;;
44446;SDS011;30152;52.066;5.358;2023-02-11T19:18:12;21.05;;;9.80;;
44446;SDS011;30152;52.066;5.358;2023-02-11T19:20:39;17.08;;;8.90;;
44446;SDS011;30152;52.066;5.358;2023-02-11T19:23:06;18.67;;;9.13;;
44446;SDS011;30152;52.066;5.358;2023-02-11T19:25:33;21.90;;;8.80;;
44446;SDS011;30152;52.066;5.358;2023-02-11T19:27:59;23.17;;;9.85;;
44446;SDS011;30152;52.066;5.358;2023-02-11T19:30:25;17.02;;;9.27;;
44446;SDS011;30152;52.066;5.358;2023-02-11T19:32:51;20.42;;;9.07;;
44446;SDS011;30152;52.066;5.358;2023-02-11T19:35:19;20.52;;;9.40;;
44446;SDS011;30152;52.066;5.358;2023-02-11T19:37:45;18.55;;;9.55;;
44446;SDS011;30152;52.066;5.358;2023-02-11T19:40:12;19.40;;;9.88;;
44446;SDS011;30152;52.066;5.358;2023-02-11T19:42:39;23.65;;;10.90;;
44446;SDS011;30152;52.066;5.358;2023-02-11T19:45:05;17.15;;;9.02;;
44446;SDS011;30152;52.066;5.358;2023-02-11T19:47:31;23.23;;;10.95;;
44446;SDS011;30152;52.066;5.358;2023-02-11T19:49:57;29.67;;;12.55;;
44446;SDS011;30152;52.066;5.358;2023-02-11T19:52:23;22.00;;;11.25;;
44446;SDS011;30152;52.066;5.358;2023-02-11T19:54:49;26.17;;;12.57;;
44446;SDS011;30152;52.066;5.358;2023-02-11T19:57:15;25.17;;;12.68;;
44446;SDS011;30152;52.066;5.358;2023-02-11T19:59:41;25.73;;;13.57;;
44446;SDS011;30152;52.066;5.358;2023-02-11T20:02:08;28.20;;;13.55;;
44446;SDS011;30152;52.066;5.358;2023-02-11T20:04:35;27.63;;;12.95;;
44446;SDS011;30152;52.066;5.358;2023-02-11T20:07:01;23.40;;;12.52;;
44446;SDS011;30152;52.066;5.358;2023-02-11T20:09:26;23.10;;;11.93;;
44446;SDS011;30152;52.066;5.358;2023-02-11T20:11:53;22.73;;;12.85;;
44446;SDS011;30152;52.066;5.358;2023-02-11T20:14:19;27.52;;;12.57;;
44446;SDS011;30152;52.066;5.358;2023-02-11T20:16:45;23.63;;;11.65;;
44446;SDS011;30152;52.066;5.358;2023-02-11T20:19:11;23.27;;;12.95;;
44446;SDS011;30152;52.066;5.358;2023-02-11T20:21:41;25.85;;;13.43;;
44446;SDS011;30152;52.066;5.358;2023-02-11T20:24:07;27.02;;;14.70;;
44446;SDS011;30152;52.066;5.358;2023-02-11T20:26:33;24.75;;;13.98;;
44446;SDS011;30152;52.066;5.358;2023-02-11T20:28:59;29.27;;;14.25;;
44446;SDS011;30152;52.066;5.358;2023-02-11T20:31:26;29.42;;;15.70;;
44446;SDS011;30152;52.066;5.358;2023-02-11T20:33:56;27.08;;;14.15;;
44446;SDS011;30152;52.066;5.358;2023-02-11T20:36:22;26.20;;;14.25;;
44446;SDS011;30152;52.066;5.358;2023-02-11T20:38:49;30.98;;;14.32;;
44446;SDS011;30152;52.066;5.358;2023-02-11T20:41:20;26.35;;;13.32;;
44446;SDS011;30152;52.066;5.358;2023-02-11T20:43:48;25.02;;;13.02;;
44446;SDS011;30152;52.066;5.358;2023-02-11T20:46:17;27.15;;;13.43;;
44446;SDS011;30152;52.066;5.358;2023-02-11T20:48:44;25.23;;;13.38;;
44446;SDS011;30152;52.066;5.358;2023-02-11T20:51:14;23.25;;;12.73;;
44446;SDS011;30152;52.066;5.358;2023-02-11T20:53:43;23.85;;;14.30;;
44446;SDS011;30152;52.066;5.358;2023-02-11T20:56:12;28.58;;;14.25;;
44446;SDS011;30152;52.066;5.358;2023-02-11T20:58:39;32.25;;;14.82;;
44446;SDS011;30152;52.066;5.358;2023-02-11T21:01:05;28.15;;;15.38;;
44446;SDS011;30152;52.066;5.358;2023-02-11T21:03:35;26.75;;;14.18;;
44446;SDS011;30152;52.066;5.358;2023-02-11T21:06:01;28.45;;;13.02;;
44446;SDS011;30152;52.066;5.358;2023-02-11T21:08:26;23.27;;;13.88;;
44446;SDS011;30152;52.066;5.358;2023-02-11T21:10:52;23.30;;;13.45;;
44446;SDS011;30152;52.066;5.358;2023-02-11T21:13:18;28.42;;;13.50;;
44446;SDS011;30152;52.066;5.358;2023-02-11T21:15:43;26.88;;;13.88;;
44446;SDS011;30152;52.066;5.358;2023-02-11T21:18:09;28.95;;;14.00;;
44446;SDS011;30152;52.066;5.358;2023-02-11T21:20:35;25.40;;;13.55;;
44446;SDS011;30152;52.066;5.358;2023-02-11T21:23:01;23.45;;;13.50;;
44446;SDS011;30152;52.066;5.358;2023-02-11T21:25:27;24.50;;;14.57;;
44446;SDS011;30152;52.066;5.358;2023-02-11T21:27:53;23.38;;;13.57;;
44446;SDS011;30152;52.066;5.358;2023-02-11T21:30:19;29.33;;;14.75;;
44446;SDS011;30152;52.066;5.358;2023-02-11T21:32:44;28.48;;;15.25;;
44446;SDS011;30152;52.066;5.358;2023-02-11T21:35:10;23.65;;;13.77;;
44446;SDS011;30152;52.066;5.358;2023-02-11T21:37:36;27.42;;;14.15;;
44446;SDS011;30152;52.066;5.358;2023-02-11T21:40:02;25.38;;;13.80;;
44446;SDS011;30152;52.066;5.358;2023-02-11T21:42:27;25.52;;;14.10;;
44446;SDS011;30152;52.066;5.358;2023-02-11T21:44:53;27.38;;;14.45;;
44446;SDS011;30152;52.066;5.358;2023-02-11T21:47:19;25.92;;;13.25;;
44446;SDS011;30152;52.066;5.358;2023-02-11T21:49:44;32.42;;;14.90;;
44446;SDS011;30152;52.066;5.358;2023-02-11T21:52:10;24.92;;;14.05;;
44446;SDS011;30152;52.066;5.358;2023-02-11T21:54:36;26.92;;;13.27;;
44446;SDS011;30152;52.066;5.358;2023-02-11T21:57:02;28.05;;;13.60;;
44446;SDS011;30152;52.066;5.358;2023-02-11T21:59:28;24.17;;;13.88;;
44446;SDS011;30152;52.066;5.358;2023-02-11T22:01:55;24.45;;;13.70;;
44446;SDS011;30152;52.066;5.358;2023-02-11T22:04:23;27.45;;;14.68;;
44446;SDS011;30152;52.066;5.358;2023-02-11T22:06:49;26.65;;;13.52;;
44446;SDS011;30152;52.066;5.358;2023-02-11T22:09:15;22.48;;;12.88;;
44446;SDS011;30152;52.066;5.358;2023-02-11T22:11:41;23.20;;;13.23;;
44446;SDS011;30152;52.066;5.358;2023-02-11T22:14:07;28.30;;;13.35;;
44446;SDS011;30152;52.066;5.358;2023-02-11T22:16:33;26.13;;;13.52;;
44446;SDS011;30152;52.066;5.358;2023-02-11T22:18:59;26.05;;;15.23;;
44446;SDS011;30152;52.066;5.358;2023-02-11T22:21:26;23.25;;;12.77;;
44446;SDS011;30152;52.066;5.358;2023-02-11T22:23:53;24.13;;;13.30;;
44446;SDS011;30152;52.066;5.358;2023-02-11T22:26:23;26.70;;;13.40;;
44446;SDS011;30152;52.066;5.358;2023-02-11T22:28:50;28.65;;;14.10;;
44446;SDS011;30152;52.066;5.358;2023-02-11T22:31:17;25.80;;;14.05;;
44446;SDS011;30152;52.066;5.358;2023-02-11T22:33:45;26.05;;;13.73;;
44446;SDS011;30152;52.066;5.358;2023-02-11T22:36:12;26.20;;;13.77;;
44446;SDS011;30152;52.066;5.358;2023-02-11T22:38:46;28.48;;;15.20;;
44446;SDS011;30152;52.066;5.358;2023-02-11T22:41:12;27.85;;;13.35;;
44446;SDS011;30152;52.066;5.358;2023-02-11T22:43:39;32.65;;;14.48;;
44446;SDS011;30152;52.066;5.358;2023-02-11T22:46:06;28.85;;;13.82;;
